This is the latest recevied weather packets stored in our database for station/object KC3BHK-2. If no packets are shown the sender has not sent any weather packets the latest 10 day(s).
| Time | Temp. | Humidity | Pressure | Rain* | Wind** | Luminosity | Snow |
|---|---|---|---|---|---|---|---|
| 1777918489 | 24.44° C | - | - | 0 mm | 6.26 m/s, 231° | - | - |
| 1777917877 | 22.78° C | - | - | 0 mm | 2.68 m/s, 155° | - | - |
| 1777917572 | 22.78° C | - | - | 0 mm | 2.24 m/s, 190° | - | - |
| 1777917268 | 23.89° C | - | - | 0 mm | 3.13 m/s, 214° | - | - |
| 1777916963 | 23.33° C | - | - | 0 mm | 2.24 m/s, 170° | - | - |
| 1777916658 | 23.89° C | - | - | 0 mm | 1.79 m/s, 159° | - | - |
| 1777916354 | 22.78° C | - | - | 0 mm | 0.89 m/s, 307° | - | - |
| 1777916046 | 23.89° C | - | - | 0 mm | 5.36 m/s, 166° | - | - |
| 1777915742 | 23.33° C | - | - | 0 mm | 3.13 m/s, 197° | - | - |
| 1777915133 | 22.78° C | - | - | 0 mm | 2.68 m/s, 211° | - | - |
| 1777914828 | 23.89° C | - | - | 0 mm | 4.02 m/s, 139° | - | - |
| 1777914523 | 22.78° C | - | - | 0 mm | 3.58 m/s, 142° | - | - |
| 1777914216 | 22.78° C | - | - | 0 mm | 3.13 m/s, 218° | - | - |
| 1777913911 | 22.78° C | - | - | 0 mm | 2.24 m/s, 148° | - | - |
| 1777913607 | 23.33° C | - | - | 0 mm | 1.79 m/s, 177° | - | - |
| 1777913302 | 22.78° C | - | - | 0 mm | 3.13 m/s, 153° | - | - |
| 1777912998 | 22.22° C | - | - | 0 mm | 3.13 m/s, 273° | - | - |
| 1777912693 | 22.22° C | - | - | 0 mm | 5.36 m/s, 219° | - | - |
| 1777912386 | 22.78° C | - | - | 0 mm | 0 m/s | - | - |
| 1777912081 | 22.78° C | - | - | 0 mm | 2.68 m/s, 264° | - | - |
| 1777911776 | 22.22° C | - | - | 0 mm | 2.68 m/s, 221° | - | - |
| 1777911472 | 21.67° C | - | - | 0 mm | 3.58 m/s, 240° | - | - |
| 1777911167 | 22.22° C | - | - | 0 mm | 3.13 m/s, 186° | - | - |
| 1777910863 | 21.67° C | - | - | 0 mm | 2.24 m/s, 172° | - | - |
| 1777910555 | 22.22° C | - | - | 0 mm | 3.13 m/s, 186° | - | - |
* Rain latest hour (hover to see other rain measurements)
** Current wind speed in m/s (hover to see current wind gust speed)